Time;durP1;ratioP1;P1;durP2;ratioP2;P2;SDS_P1;SDS_P2;PMS_P1;PMS_P2;Temp;Humidity;BMP_temperature;BMP_pressure;BME280_temperature;BME280_humidity;BME280_pressure;Samples;Min_cycle;Max_cycle;Signal;HPM_P1;HPM_P2
2023/10/11 00:00:33;;;;;;;49.35;27.45;;;6.70;99.90;;;;;;5039802;28;20025;-81
2023/10/11 00:03:04;;;;;;;49.97;28.50;;;6.70;99.90;;;;;;5051061;28;20021;-78
2023/10/11 00:05:40;;;;;;;59.08;30.27;;;6.80;99.90;;;;;;5050563;28;20021;-78
2023/10/11 00:08:08;;;;;;;60.95;30.60;;;6.80;99.90;;;;;;5052136;28;20037;-81
2023/10/11 00:10:43;;;;;;;57.83;30.98;;;6.80;99.90;;;;;;5057513;28;20103;-81
2023/10/11 00:13:15;;;;;;;55.58;29.65;;;6.80;99.90;;;;;;5050697;28;20378;-78
2023/10/11 00:15:41;;;;;;;67.53;29.77;;;6.90;99.90;;;;;;5050617;28;20033;-78
2023/10/11 00:18:07;;;;;;;80.70;37.53;;;6.90;99.90;;;;;;5051038;28;20028;-78
2023/10/11 00:20:57;;;;;;;74.47;36.15;;;6.90;99.90;;;;;;5052212;28;20067;-81
2023/10/11 00:23:22;;;;;;;136.30;40.70;;;6.90;99.90;;;;;;5041765;28;20859;-78
2023/10/11 00:25:50;;;;;;;149.98;44.47;;;6.90;99.90;;;;;;5050902;28;20108;-78
2023/10/11 00:28:17;;;;;;;144.57;39.25;;;6.90;99.90;;;;;;5054837;28;20037;-78
2023/10/11 00:30:46;;;;;;;84.50;34.17;;;6.90;99.90;;;;;;5053949;28;20021;-81
2023/10/11 00:33:13;;;;;;;145.52;45.00;;;7.00;99.90;;;;;;5050965;28;20020;-81
2023/10/11 00:35:47;;;;;;;121.18;40.08;;;7.00;99.90;;;;;;5052283;28;20025;-78
2023/10/11 00:38:29;;;;;;;175.60;42.10;;;7.00;99.90;;;;;;5051231;28;20029;-82
2023/10/11 00:41:12;;;;;;;189.57;47.00;;;7.00;99.90;;;;;;5038492;28;20534;-82
2023/10/11 00:43:47;;;;;;;132.00;40.10;;;7.00;99.90;;;;;;5055943;28;20028;-81
2023/10/11 00:46:14;;;;;;;102.25;35.60;;;7.00;99.90;;;;;;5051962;28;20079;-82
2023/10/11 00:49:14;;;;;;;80.03;32.28;;;7.00;99.90;;;;;;5051841;28;20033;-82
2023/10/11 00:51:34;;;;;;;103.45;36.15;;;7.00;99.90;;;;;;5051758;28;20390;-81
2023/10/11 00:54:02;;;;;;;91.22;37.78;;;7.00;99.90;;;;;;5060633;28;20025;-78
2023/10/11 00:56:34;;;;;;;101.53;36.80;;;7.00;99.90;;;;;;5050645;28;20067;-78
2023/10/11 00:59:03;;;;;;;79.60;36.60;;;7.00;99.90;;;;;;5052112;28;20021;-82
2023/10/11 01:01:29;;;;;;;81.95;37.45;;;6.90;99.90;;;;;;5053907;28;20382;-78
2023/10/11 01:03:55;;;;;;;74.45;33.95;;;6.90;99.90;;;;;;5034320;28;20021;-78
2023/10/11 01:06:25;;;;;;;96.63;40.05;;;6.90;99.90;;;;;;5050556;28;20025;-78
2023/10/11 01:08:52;;;;;;;86.53;35.63;;;6.90;99.90;;;;;;5046631;28;20037;-78
2023/10/11 01:11:18;;;;;;;79.55;37.45;;;6.90;99.90;;;;;;5050216;28;20048;-78
2023/10/11 01:13:50;;;;;;;87.85;40.10;;;7.00;99.90;;;;;;5043460;28;20025;-78
2023/10/11 01:16:18;;;;;;;76.40;32.70;;;7.00;99.90;;;;;;5057782;28;20017;-81
2023/10/11 01:18:43;;;;;;;75.85;33.60;;;6.90;99.90;;;;;;5063698;28;20025;-78
2023/10/11 01:21:12;;;;;;;88.85;37.20;;;7.00;99.90;;;;;;5055113;28;20143;-77
2023/10/11 01:23:38;;;;;;;65.32;30.10;;;7.00;99.90;;;;;;5055365;28;20376;-78
2023/10/11 01:26:07;;;;;;;83.82;37.55;;;7.00;99.90;;;;;;5049501;28;20030;-78
2023/10/11 01:28:41;;;;;;;79.78;36.20;;;7.00;99.90;;;;;;5052906;28;20028;-78
2023/10/11 01:31:09;;;;;;;80.65;35.50;;;7.00;99.90;;;;;;5042498;28;20044;-78
2023/10/11 01:33:42;;;;;;;77.65;35.92;;;7.10;99.90;;;;;;5053639;28;20044;-78
2023/10/11 01:36:10;;;;;;;83.78;36.33;;;7.10;99.90;;;;;;5055000;28;20021;-82
2023/10/11 01:38:46;;;;;;;91.03;37.50;;;7.10;99.90;;;;;;5067367;28;20017;-78
2023/10/11 01:41:16;;;;;;;86.60;38.17;;;7.10;99.90;;;;;;5054035;28;20433;-82
2023/10/11 01:43:45;;;;;;;86.05;35.65;;;7.10;99.90;;;;;;5054718;28;20025;-78
2023/10/11 01:46:12;;;;;;;81.25;36.83;;;7.20;99.90;;;;;;5056687;28;20071;-82
2023/10/11 01:48:38;;;;;;;79.43;33.20;;;7.20;99.90;;;;;;5056787;28;20041;-81
2023/10/11 01:51:08;;;;;;;82.25;34.63;;;7.20;99.90;;;;;;5054953;28;20032;-81
2023/10/11 01:53:35;;;;;;;81.70;34.88;;;7.30;99.90;;;;;;5053305;28;20017;-82
2023/10/11 01:56:03;;;;;;;75.25;35.53;;;7.30;99.90;;;;;;5065065;28;20470;-81
2023/10/11 01:58:28;;;;;;;88.38;35.85;;;7.30;99.90;;;;;;5053904;28;20021;-81
2023/10/11 02:00:55;;;;;;;67.85;32.40;;;7.40;99.90;;;;;;5054738;28;20360;-82
2023/10/11 02:03:24;;;;;;;74.80;33.55;;;7.40;99.90;;;;;;5054324;28;20056;-78
2023/10/11 02:05:50;;;;;;;82.07;34.45;;;7.40;99.90;;;;;;5057500;28;20040;-78
2023/10/11 02:08:17;;;;;;;72.00;31.88;;;7.40;99.90;;;;;;5036412;28;20041;-82
2023/10/11 02:10:44;;;;;;;85.38;35.30;;;7.50;99.90;;;;;;5054539;28;20049;-77
2023/10/11 02:13:11;;;;;;;74.80;35.17;;;7.50;99.90;;;;;;5054763;28;20021;-82
2023/10/11 02:15:39;;;;;;;71.93;31.23;;;7.50;99.90;;;;;;5061522;28;20090;-81
2023/10/11 02:18:08;;;;;;;70.40;33.30;;;7.50;99.90;;;;;;5054071;28;20056;-81
2023/10/11 02:20:46;;;;;;;61.47;31.92;;;7.50;99.90;;;;;;5052592;28;20406;-77
2023/10/11 02:23:11;;;;;;;65.97;31.13;;;7.60;99.90;;;;;;5054121;28;20060;-78
2023/10/11 02:25:41;;;;;;;64.65;31.20;;;7.60;99.90;;;;;;5055756;28;20047;-81
2023/10/11 02:28:09;;;;;;;66.63;30.35;;;7.60;99.90;;;;;;5041936;28;20029;-78
2023/10/11 02:30:38;;;;;;;75.38;34.13;;;7.60;99.90;;;;;;5041016;28;20017;-78
2023/10/11 02:33:07;;;;;;;76.72;35.28;;;7.70;99.90;;;;;;5052794;28;20036;-78
2023/10/11 02:35:44;;;;;;;62.08;30.55;;;7.70;99.90;;;;;;5051710;28;20410;-78
2023/10/11 02:38:10;;;;;;;63.08;29.55;;;7.70;99.90;;;;;;5052689;28;20068;-77
2023/10/11 02:40:38;;;;;;;70.25;33.88;;;7.70;99.90;;;;;;5051158;28;20049;-78
2023/10/11 02:43:05;;;;;;;65.80;33.08;;;7.80;99.90;;;;;;5052691;28;20074;-81
2023/10/11 02:45:33;;;;;;;66.28;32.47;;;7.70;99.90;;;;;;5051076;28;20013;-78
2023/10/11 02:47:59;;;;;;;62.95;30.33;;;7.70;99.90;;;;;;5052358;28;20520;-78
2023/10/11 02:50:36;;;;;;;57.92;30.58;;;7.70;99.90;;;;;;5039565;28;20063;-82
2023/10/11 02:53:05;;;;;;;64.65;30.70;;;7.70;99.90;;;;;;5051418;28;20029;-81
2023/10/11 02:55:31;;;;;;;57.33;29.95;;;7.70;99.90;;;;;;5059151;28;20032;-82
2023/10/11 02:58:06;;;;;;;64.72;30.15;;;7.70;99.90;;;;;;5056282;28;20021;-78
2023/10/11 03:00:36;;;;;;;63.53;31.02;;;7.70;99.90;;;;;;5052100;28;20021;-78
2023/10/11 03:03:08;;;;;;;65.13;30.60;;;7.70;99.90;;;;;;5052108;28;20024;-78
2023/10/11 03:05:37;;;;;;;75.60;33.75;;;7.80;99.90;;;;;;5052371;28;20036;-78
2023/10/11 03:08:17;;;;;;;67.63;31.10;;;7.80;99.90;;;;;;5051761;28;20040;-78
2023/10/11 03:10:44;;;;;;;54.95;29.48;;;7.80;99.90;;;;;;5059632;28;20024;-78
2023/10/11 03:13:19;;;;;;;64.50;30.85;;;7.80;99.90;;;;;;5053743;28;20032;-78
2023/10/11 03:15:54;;;;;;;59.78;30.48;;;7.80;99.90;;;;;;5052021;28;20048;-81
2023/10/11 03:18:26;;;;;;;61.45;30.05;;;7.80;99.90;;;;;;5053195;28;20029;-78
2023/10/11 03:21:08;;;;;;;67.60;30.75;;;7.90;99.90;;;;;;5051655;28;20140;-82
2023/10/11 03:23:44;;;;;;;50.35;26.23;;;7.90;99.90;;;;;;5051869;28;20025;-82
2023/10/11 03:26:19;;;;;;;69.25;32.47;;;7.90;99.90;;;;;;5059167;28;20071;-82
2023/10/11 03:28:45;;;;;;;68.50;31.85;;;7.90;99.90;;;;;;5046109;28;20168;-82
2023/10/11 03:31:15;;;;;;;63.63;31.40;;;7.90;99.90;;;;;;5044457;28;20025;-82
2023/10/11 03:33:41;;;;;;;54.75;30.33;;;7.90;99.90;;;;;;5052088;28;20028;-81
2023/10/11 03:36:20;;;;;;;74.15;33.58;;;7.90;99.90;;;;;;5057384;28;20032;-82
2023/10/11 03:38:51;;;;;;;59.25;30.63;;;7.90;99.90;;;;;;5041395;28;20028;-78
2023/10/11 03:41:30;;;;;;;64.90;30.95;;;7.90;99.90;;;;;;5051308;28;20024;-82
2023/10/11 03:44:00;;;;;;;76.85;31.98;;;8.00;99.90;;;;;;5051532;28;20066;-82
2023/10/11 03:46:28;;;;;;;57.60;31.35;;;8.00;99.90;;;;;;5053407;28;20186;-78
2023/10/11 03:49:13;;;;;;;54.75;29.40;;;8.10;99.90;;;;;;5051460;28;20044;-82
2023/10/11 03:51:43;;;;;;;56.97;32.47;;;8.10;99.90;;;;;;5051845;28;20021;-82
2023/10/11 03:54:13;;;;;;;69.60;35.03;;;8.10;99.90;;;;;;5052582;28;20486;-78
2023/10/11 03:56:45;;;;;;;72.78;34.70;;;8.20;99.90;;;;;;5057870;28;20066;-78
2023/10/11 03:59:12;;;;;;;81.25;37.22;;;8.20;99.90;;;;;;5051172;28;20025;-82
2023/10/11 04:01:38;;;;;;;81.00;36.75;;;8.20;99.90;;;;;;5051153;28;20429;-78
2023/10/11 04:04:05;;;;;;;82.13;40.65;;;8.30;99.90;;;;;;5050806;28;20489;-82
2023/10/11 04:06:34;;;;;;;75.75;37.47;;;8.30;99.90;;;;;;5051490;28;20451;-78
2023/10/11 04:09:03;;;;;;;77.70;37.90;;;8.30;99.90;;;;;;5052428;28;20039;-78
2023/10/11 04:11:50;;;;;;;72.82;37.47;;;8.40;99.90;;;;;;5051555;28;20086;-78
2023/10/11 04:14:24;;;;;;;72.95;35.97;;;8.40;99.90;;;;;;5051157;28;20021;-82
2023/10/11 04:16:53;;;;;;;68.70;34.00;;;8.40;99.90;;;;;;5059833;28;20021;-78
2023/10/11 04:19:21;;;;;;;63.03;33.10;;;8.30;99.90;;;;;;5051353;28;20043;-82
2023/10/11 04:24:19;;;;;;;67.65;34.88;;;8.30;99.90;;;;;;5052412;28;20087;-78
2023/10/11 04:26:53;;;;;;;66.28;32.97;;;8.30;99.90;;;;;;5051328;28;20119;-78
2023/10/11 04:29:23;;;;;;;57.42;31.33;;;8.30;99.90;;;;;;5050928;28;20036;-82
2023/10/11 04:34:32;;;;;;;72.82;31.50;;;8.20;99.90;;;;;;5057895;28;20435;-82
2023/10/11 04:37:04;;;;;;;56.70;30.08;;;8.20;99.90;;;;;;5050734;28;20103;-82
2023/10/11 04:39:49;;;;;;;60.83;32.83;;;8.20;99.90;;;;;;5050876;28;20466;-82
2023/10/11 04:42:17;;;;;;;63.83;31.77;;;8.20;99.90;;;;;;5052101;28;20037;-78
2023/10/11 04:44:42;;;;;;;53.30;28.85;;;8.30;99.90;;;;;;5063257;28;20037;-82
2023/10/11 04:47:11;;;;;;;61.38;31.48;;;8.30;99.90;;;;;;5054363;28;20080;-81
2023/10/11 04:49:37;;;;;;;67.00;34.10;;;8.30;99.90;;;;;;5055689;28;20052;-78
2023/10/11 04:52:10;;;;;;;68.72;33.17;;;8.30;99.90;;;;;;5056737;28;20053;-78
2023/10/11 04:54:36;;;;;;;57.63;29.98;;;8.30;99.90;;;;;;5043265;28;20100;-78
2023/10/11 04:57:16;;;;;;;72.35;34.55;;;8.30;99.90;;;;;;5054448;28;20038;-83
2023/10/11 04:59:42;;;;;;;62.92;30.70;;;8.40;99.90;;;;;;5043044;28;20060;-82
2023/10/11 05:04:53;;;;;;;60.15;29.00;;;8.30;99.90;;;;;;5044907;28;20114;-82
2023/10/11 05:07:19;;;;;;;49.10;26.77;;;8.30;99.90;;;;;;5056160;28;20472;-82
2023/10/11 05:09:59;;;;;;;51.80;27.20;;;8.30;99.90;;;;;;5055737;28;20035;-78
2023/10/11 05:12:25;;;;;;;62.10;31.52;;;8.30;99.90;;;;;;5055280;28;20104;-82
2023/10/11 05:19:57;;;;;;;54.92;27.52;;;8.20;99.90;;;;;;5055614;28;20490;-78
2023/10/11 05:22:29;;;;;;;54.38;29.33;;;8.20;99.90;;;;;;5053793;28;20013;-82
2023/10/11 05:32:49;;;;;;;44.60;25.52;;;8.20;99.90;;;;;;5055213;28;20057;-80
2023/10/11 05:51:30;;;;;;;55.47;28.08;;;8.50;99.90;;;;;;5054923;28;20063;-83
2023/10/11 05:54:02;;;;;;;51.95;28.58;;;8.50;99.90;;;;;;5059475;28;20503;-82
2023/10/11 05:56:33;;;;;;;49.75;28.70;;;8.50;99.90;;;;;;5054488;28;20017;-82
2023/10/11 05:59:04;;;;;;;50.85;28.70;;;8.60;99.90;;;;;;5054327;28;20440;-78
2023/10/11 06:01:30;;;;;;;49.35;27.25;;;8.70;99.90;;;;;;5054851;28;20055;-78
2023/10/11 06:03:57;;;;;;;49.22;29.63;;;8.70;99.90;;;;;;5052961;28;20028;-78
2023/10/11 06:06:23;;;;;;;59.08;31.08;;;8.80;99.90;;;;;;5053370;28;20018;-82
2023/10/11 06:08:53;;;;;;;54.40;29.20;;;8.80;99.90;;;;;;5054063;28;20032;-78
2023/10/11 06:11:20;;;;;;;51.38;29.30;;;8.90;99.90;;;;;;5053320;28;20438;-78
2023/10/11 06:13:47;;;;;;;52.83;30.35;;;8.90;99.90;;;;;;5052826;28;20017;-82
2023/10/11 06:16:16;;;;;;;62.40;31.27;;;9.00;99.90;;;;;;5053156;28;20034;-78
2023/10/11 06:19:16;;;;;;;44.95;26.35;;;9.00;99.90;;;;;;5054085;28;20025;-82
2023/10/11 06:21:33;;;;;;;57.25;31.88;;;9.10;99.90;;;;;;5054084;28;20029;-82
2023/10/11 06:24:05;;;;;;;53.75;30.38;;;9.10;99.90;;;;;;5065558;28;20021;-78
2023/10/11 06:29:03;;;;;;;108.13;51.03;;;9.20;99.90;;;;;;5054532;28;20055;-78
2023/10/11 06:31:34;;;;;;;86.65;42.92;;;9.30;99.90;;;;;;5057176;28;20381;-78
2023/10/11 06:34:15;;;;;;;85.85;40.97;;;9.40;99.90;;;;;;5052767;28;20025;-79
2023/10/11 06:36:50;;;;;;;69.50;37.72;;;9.50;99.90;;;;;;5052451;28;20492;-81
2023/10/11 06:44:48;;;;;;;72.65;37.65;;;9.80;99.90;;;;;;5053843;28;20099;-82
2023/10/11 06:47:19;;;;;;;63.25;34.78;;;9.90;99.90;;;;;;5053503;28;20075;-82
2023/10/11 06:49:49;;;;;;;64.78;36.85;;;10.00;99.90;;;;;;5056415;28;20029;-82
2023/10/11 06:52:17;;;;;;;62.75;36.28;;;10.10;99.90;;;;;;5052705;28;20542;-82
2023/10/11 06:54:47;;;;;;;70.70;38.50;;;10.20;99.90;;;;;;5052182;28;20027;-78
2023/10/11 06:57:19;;;;;;;69.57;37.50;;;10.40;99.90;;;;;;5052188;28;20470;-78
2023/10/11 06:59:49;;;;;;;68.78;38.35;;;10.50;99.90;;;;;;5052383;28;20397;-78
2023/10/11 07:02:31;;;;;;;75.97;43.72;;;10.60;99.90;;;;;;5053046;28;20036;-78
2023/10/11 07:05:05;;;;;;;69.57;41.28;;;10.80;99.90;;;;;;5053606;28;20075;-78
2023/10/11 07:07:32;;;;;;;72.43;40.53;;;10.90;99.90;;;;;;5054838;28;20107;-83
2023/10/11 07:10:00;;;;;;;66.60;37.88;;;11.00;99.90;;;;;;5044163;28;20017;-84
2023/10/11 07:12:39;;;;;;;68.28;36.88;;;11.10;99.90;;;;;;5048322;28;20116;-83
2023/10/11 07:15:07;;;;;;;54.58;33.15;;;11.20;99.90;;;;;;5050708;28;20033;-84
2023/10/11 07:17:33;;;;;;;61.15;34.30;;;11.30;99.90;;;;;;5052330;28;20471;-83
2023/10/11 07:20:00;;;;;;;60.03;34.58;;;11.40;99.90;;;;;;5052797;28;20063;-83
2023/10/11 07:22:26;;;;;;;55.03;33.47;;;11.60;99.90;;;;;;5051593;28;20025;-83
2023/10/11 07:25:18;;;;;;;55.42;32.08;;;11.70;99.90;;;;;;5052769;28;20580;-84
2023/10/11 07:27:43;;;;;;;46.88;29.60;;;11.80;99.90;;;;;;5052556;28;20380;-83
2023/10/11 07:30:16;;;;;;;47.38;29.27;;;12.00;99.90;;;;;;5051268;28;20021;-83
2023/10/11 07:32:43;;;;;;;43.10;26.95;;;12.10;99.90;;;;;;5050111;28;20040;-84
2023/10/11 07:35:27;;;;;;;45.95;27.85;;;12.30;99.90;;;;;;5047315;28;20493;-83
2023/10/11 07:37:52;;;;;;;46.97;27.67;;;12.50;99.90;;;;;;5052605;28;20525;-78
2023/10/11 07:40:31;;;;;;;43.08;26.15;;;12.60;99.90;;;;;;5052670;28;20048;-78
2023/10/11 07:42:57;;;;;;;39.13;23.83;;;12.80;99.90;;;;;;5041539;28;20482;-83
2023/10/11 07:45:26;;;;;;;36.70;21.15;;;13.00;99.90;;;;;;5041368;28;20021;-84
2023/10/11 07:47:52;;;;;;;33.33;21.95;;;13.20;99.90;;;;;;5047677;28;20041;-84
2023/10/11 07:50:24;;;;;;;38.05;20.27;;;13.50;99.90;;;;;;5037101;28;20026;-78
2023/10/11 07:52:51;;;;;;;29.42;19.02;;;13.60;99.90;;;;;;5036092;28;20017;-78
2023/10/11 07:55:17;;;;;;;32.55;19.42;;;13.90;99.90;;;;;;5039221;28;20021;-79
2023/10/11 07:57:46;;;;;;;27.52;19.08;;;14.10;99.90;;;;;;5046373;28;20120;-79
2023/10/11 08:00:19;;;;;;;24.30;16.08;;;14.20;99.90;;;;;;5034745;28;20030;-80
2023/10/11 08:03:02;;;;;;;38.63;17.15;;;14.50;99.90;;;;;;5049876;28;20031;-85
2023/10/11 08:05:30;;;;;;;21.45;15.00;;;14.70;99.90;;;;;;5045338;28;20022;-86
2023/10/11 08:07:56;;;;;;;31.40;25.25;;;14.90;99.90;;;;;;5050718;28;20567;-86
2023/10/11 08:10:29;;;;;;;21.95;13.55;;;15.10;99.90;;;;;;5049601;28;20021;-86
2023/10/11 08:12:57;;;;;;;16.55;11.77;;;15.30;99.90;;;;;;5050775;28;20028;-86
2023/10/11 08:15:25;;;;;;;16.52;10.85;;;15.50;99.90;;;;;;5047774;28;20034;-78
2023/10/11 08:17:51;;;;;;;14.70;10.95;;;15.70;99.90;;;;;;5049197;28;20025;-80
2023/10/11 08:20:17;;;;;;;17.35;10.98;;;15.90;99.90;;;;;;5052793;28;20023;-84
2023/10/11 08:22:47;;;;;;;15.43;9.80;;;16.10;99.90;;;;;;5056180;28;20017;-84
2023/10/11 08:25:13;;;;;;;14.82;10.18;;;16.30;99.90;;;;;;5054717;28;20017;-78
2023/10/11 08:27:39;;;;;;;19.27;8.52;;;16.50;99.90;;;;;;5055011;28;20132;-85
2023/10/11 08:30:09;;;;;;;13.90;8.38;;;16.70;99.90;;;;;;5054487;28;20094;-85
2023/10/11 08:32:42;;;;;;;15.25;8.45;;;16.80;99.90;;;;;;5056225;28;20017;-78
2023/10/11 08:35:31;;;;;;;15.63;8.52;;;17.00;99.90;;;;;;5054438;28;20120;-84
2023/10/11 08:38:04;;;;;;;12.68;7.63;;;17.10;99.90;;;;;;5054567;28;20048;-85
2023/10/11 08:40:35;;;;;;;13.18;7.68;;;17.20;99.90;;;;;;5056055;28;20025;-78
2023/10/11 08:43:02;;;;;;;14.40;7.97;;;17.40;99.90;;;;;;5054313;28;20021;-84
2023/10/11 08:45:33;;;;;;;15.38;7.25;;;17.40;99.90;;;;;;5056086;28;20107;-85
2023/10/11 08:48:00;;;;;;;19.08;7.60;;;17.50;99.90;;;;;;5051638;28;20044;-85
2023/10/11 08:50:32;;;;;;;10.15;6.43;;;17.70;99.90;;;;;;5055353;28;20063;-85
2023/10/11 08:52:57;;;;;;;12.20;6.85;;;17.80;99.90;;;;;;5055337;28;20048;-85
2023/10/11 08:55:24;;;;;;;11.55;6.80;;;17.80;99.90;;;;;;5054490;28;20437;-85
2023/10/11 08:57:53;;;;;;;17.67;6.38;;;17.90;99.90;;;;;;5054243;28;20025;-78
2023/10/11 09:00:29;;;;;;;11.95;6.60;;;18.00;99.90;;;;;;5054303;28;20391;-85
2023/10/11 09:03:19;;;;;;;13.38;6.65;;;18.00;99.90;;;;;;5054040;28;20029;-78
2023/10/11 09:05:47;;;;;;;11.10;6.10;;;18.30;99.90;;;;;;5054565;28;21541;-85
2023/10/11 09:08:26;;;;;;;15.05;6.72;;;18.40;99.90;;;;;;5054927;28;20040;-78
2023/10/11 09:11:11;;;;;;;8.80;5.65;;;18.50;99.90;;;;;;5055265;28;20032;-79
2023/10/11 09:13:37;;;;;;;12.77;7.00;;;18.60;99.90;;;;;;5053882;28;20032;-78
2023/10/11 09:16:08;;;;;;;10.35;6.05;;;18.60;99.90;;;;;;5054139;28;20029;-85
2023/10/11 09:18:34;;;;;;;15.70;7.13;;;18.60;99.90;;;;;;5053956;28;20060;-85
2023/10/11 09:21:09;;;;;;;11.60;6.05;;;18.60;99.90;;;;;;5055274;28;20028;-85
2023/10/11 09:23:39;;;;;;;14.45;6.43;;;18.70;99.90;;;;;;5055113;28;20021;-78
2023/10/11 09:26:06;;;;;;;8.50;4.45;;;18.70;99.90;;;;;;5054003;28;20025;-86
2023/10/11 09:28:40;;;;;;;10.75;5.35;;;18.80;99.90;;;;;;5053614;28;20029;-86
2023/10/11 09:31:20;;;;;;;13.23;9.52;;;18.80;99.90;;;;;;5055083;28;20107;-79
2023/10/11 09:36:43;;;;;;;7.30;5.43;;;18.80;99.90;;;;;;5046333;28;20078;-86
2023/10/11 09:39:15;;;;;;;11.88;5.53;;;18.90;99.90;;;;;;5050437;28;20028;-78
2023/10/11 09:41:45;;;;;;;11.63;6.20;;;18.90;99.90;;;;;;5053515;28;20017;-79
2023/10/11 09:44:11;;;;;;;12.85;6.25;;;19.00;99.90;;;;;;5053964;28;20041;-86
2023/10/11 09:46:37;;;;;;;12.50;6.10;;;19.00;99.90;;;;;;5054398;28;20143;-86
2023/10/11 09:49:04;;;;;;;11.60;5.47;;;19.00;99.90;;;;;;5054413;28;20037;-78
2023/10/11 09:51:31;;;;;;;11.27;5.82;;;19.00;99.90;;;;;;5053347;28;20024;-78
2023/10/11 09:54:07;;;;;;;12.25;6.15;;;19.10;99.90;;;;;;5053246;28;20021;-78
2023/10/11 09:56:48;;;;;;;9.80;5.00;;;19.10;99.90;;;;;;5040789;28;20020;-85
2023/10/11 09:59:30;;;;;;;14.95;6.40;;;19.20;99.90;;;;;;5054253;28;20033;-78
2023/10/11 10:02:30;;;;;;;12.88;4.78;;;19.30;99.90;;;;;;5053292;28;20033;-86
2023/10/11 10:04:57;;;;;;;9.80;6.03;;;19.30;99.90;;;;;;5045427;28;20029;-86
2023/10/11 10:10:07;;;;;;;12.48;4.97;;;19.40;99.90;;;;;;5054363;28;20109;-86
2023/10/11 10:12:55;;;;;;;11.90;4.85;;;19.40;99.90;;;;;;5052658;28;20032;-86
2023/10/11 10:15:24;;;;;;;11.35;6.00;;;19.40;99.90;;;;;;5054029;28;20075;-86
2023/10/11 10:18:03;;;;;;;12.98;11.75;;;19.30;99.90;;;;;;5052971;28;20020;-79
2023/10/11 10:20:34;;;;;;;10.23;5.32;;;19.30;99.90;;;;;;5053098;28;20535;-79
2023/10/11 10:23:15;;;;;;;9.40;5.03;;;19.40;99.90;;;;;;5053014;28;20414;-79
2023/10/11 10:26:06;;;;;;;13.70;5.40;;;19.50;99.90;;;;;;5053229;28;20017;-87
2023/10/11 10:28:42;;;;;;;9.20;5.53;;;19.60;99.90;;;;;;5052532;28;20502;-86
2023/10/11 10:31:09;;;;;;;8.52;4.68;;;19.70;97.00;;;;;;5055607;28;20389;-86
2023/10/11 10:33:39;;;;;;;11.73;5.07;;;19.90;99.70;;;;;;5055529;28;20029;-86
2023/10/11 10:36:29;;;;;;;11.88;5.45;;;19.90;95.20;;;;;;5052932;28;20120;-79
2023/10/11 10:39:00;;;;;;;8.13;4.97;;;20.00;98.20;;;;;;5038551;28;20026;-87
2023/10/11 10:41:32;;;;;;;11.27;5.68;;;20.00;95.80;;;;;;5060918;28;20028;-87
2023/10/11 10:44:08;;;;;;;11.88;5.43;;;20.00;93.80;;;;;;5043780;28;20028;-87
2023/10/11 10:46:49;;;;;;;10.73;4.78;;;20.10;95.50;;;;;;5050665;28;20052;-87
2023/10/11 10:49:17;;;;;;;10.20;4.85;;;20.10;92.90;;;;;;5056392;28;20043;-86
2023/10/11 10:51:47;;;;;;;14.90;5.30;;;20.20;91.20;;;;;;5041616;28;20040;-87
2023/10/11 10:54:14;;;;;;;13.88;5.30;;;20.20;93.50;;;;;;5051957;28;20021;-79
2023/10/11 10:56:43;;;;;;;10.63;4.63;;;20.30;89.40;;;;;;5052847;28;20021;-78
2023/10/11 10:59:11;;;;;;;9.60;4.72;;;20.40;83.10;;;;;;5052647;28;20036;-87
2023/10/11 11:01:47;;;;;;;12.20;4.45;;;20.60;85.40;;;;;;5058842;28;20025;-80
2023/10/11 11:04:22;;;;;;;9.77;4.72;;;20.70;81.90;;;;;;5055194;28;20040;-88
2023/10/11 11:06:49;;;;;;;12.98;5.05;;;20.70;81.80;;;;;;5053510;28;20386;-88
2023/10/11 11:09:25;;;;;;;12.82;5.13;;;20.80;81.90;;;;;;5051760;28;20171;-79
2023/10/11 11:11:55;;;;;;;9.82;4.60;;;20.80;82.80;;;;;;5052265;28;20037;-79
2023/10/11 11:14:23;;;;;;;9.35;5.15;;;20.80;83.70;;;;;;5059275;28;20094;-86
2023/10/11 11:16:59;;;;;;;7.10;4.30;;;20.80;86.20;;;;;;5053028;28;20095;-86
2023/10/11 11:19:34;;;;;;;9.98;4.75;;;20.80;86.20;;;;;;5051871;28;20063;-79
2023/10/11 11:22:15;;;;;;;13.88;4.82;;;20.80;84.80;;;;;;5053259;28;20108;-87
2023/10/11 11:24:42;;;;;;;12.93;4.93;;;20.80;84.70;;;;;;5059725;28;20074;-79
2023/10/11 11:27:18;;;;;;;10.32;4.88;;;20.90;85.70;;;;;;5051501;28;20025;-79
2023/10/11 11:29:47;;;;;;;11.23;4.80;;;21.00;83.90;;;;;;5051991;28;20047;-79
2023/10/11 11:32:15;;;;;;;11.35;4.45;;;21.00;80.30;;;;;;5039079;28;20028;-79
2023/10/11 11:35:04;;;;;;;13.75;4.43;;;21.00;78.00;;;;;;5051479;28;20025;-88
2023/10/11 11:37:31;;;;;;;11.75;4.35;;;21.10;77.50;;;;;;5051392;28;20021;-87
2023/10/11 11:40:18;;;;;;;10.45;4.10;;;21.10;76.20;;;;;;5051127;28;20155;-88
2023/10/11 11:42:47;;;;;;;10.75;4.45;;;21.10;75.80;;;;;;5052620;28;20041;-79
2023/10/11 11:45:26;;;;;;;11.45;5.13;;;21.20;77.30;;;;;;5052091;28;20022;-80
2023/10/11 11:47:58;;;;;;;11.43;3.97;;;21.10;75.10;;;;;;5048854;28;20052;-88
2023/10/11 11:50:31;;;;;;;9.50;4.15;;;21.10;76.70;;;;;;5041445;28;20083;-79
2023/10/11 11:52:57;;;;;;;11.15;4.05;;;21.10;77.10;;;;;;5052299;28;20014;-88
2023/10/11 11:55:23;;;;;;;9.73;4.75;;;21.00;75.20;;;;;;5051173;28;20013;-79
2023/10/11 11:57:50;;;;;;;8.85;4.05;;;21.00;76.00;;;;;;5053038;28;20554;-87
2023/10/11 12:02:54;;;;;;;13.15;4.82;;;21.10;76.20;;;;;;5063891;28;20025;-79
2023/10/11 12:05:20;;;;;;;12.50;4.38;;;21.20;74.90;;;;;;5052480;28;20025;-87
2023/10/11 12:07:48;;;;;;;12.77;3.70;;;21.20;75.10;;;;;;5052675;28;20045;-79
2023/10/11 12:10:23;;;;;;;12.80;4.28;;;21.30;73.60;;;;;;5052299;28;20021;-80
2023/10/11 12:12:53;;;;;;;9.63;4.35;;;21.30;73.90;;;;;;5039475;28;20017;-88
2023/10/11 12:15:19;;;;;;;10.90;4.05;;;21.20;72.40;;;;;;5052028;28;20047;-88
2023/10/11 12:17:46;;;;;;;12.27;3.78;;;21.20;73.30;;;;;;5060050;28;20048;-80
2023/10/11 12:20:13;;;;;;;13.77;4.88;;;21.30;74.70;;;;;;5051011;28;20017;-79
2023/10/11 12:22:42;;;;;;;8.55;4.47;;;21.30;75.60;;;;;;5052538;28;20032;-87
2023/10/11 12:25:12;;;;;;;11.45;4.03;;;21.40;75.60;;;;;;5052132;28;20055;-80
2023/10/11 12:27:41;;;;;;;12.27;4.22;;;21.50;77.30;;;;;;5052447;28;20104;-88
2023/10/11 12:30:19;;;;;;;15.00;5.13;;;21.60;77.90;;;;;;5052703;28;20120;-87
2023/10/11 12:32:49;;;;;;;7.07;3.83;;;21.70;74.30;;;;;;5052415;28;20112;-88
2023/10/11 12:35:15;;;;;;;13.65;4.90;;;21.90;72.20;;;;;;5050818;28;20037;-80
2023/10/11 12:37:41;;;;;;;10.80;3.78;;;21.90;71.10;;;;;;5059684;28;20034;-88
2023/10/11 12:40:21;;;;;;;8.48;4.53;;;21.90;69.50;;;;;;5052188;28;20103;-88
2023/10/11 12:42:48;;;;;;;10.48;4.20;;;21.90;68.80;;;;;;5049582;28;20474;-88
2023/10/11 12:45:17;;;;;;;10.82;4.70;;;21.80;67.50;;;;;;5052319;28;20017;-88
2023/10/11 12:47:43;;;;;;;9.30;4.22;;;21.80;69.20;;;;;;5051831;28;20049;-80
2023/10/11 12:50:09;;;;;;;9.82;3.80;;;21.70;68.00;;;;;;5051983;28;20417;-88
2023/10/11 12:52:38;;;;;;;14.73;4.50;;;21.60;66.70;;;;;;5051872;28;20100;-80
2023/10/11 12:55:07;;;;;;;7.70;4.10;;;21.50;67.30;;;;;;5054811;28;20021;-88
2023/10/11 12:57:38;;;;;;;13.25;4.80;;;21.50;68.40;;;;;;5053569;28;20391;-88
2023/10/11 13:00:28;;;;;;;12.98;5.13;;;21.50;69.10;;;;;;5050613;28;20033;-88
2023/10/11 13:03:15;;;;;;;9.65;3.97;;;21.40;68.10;;;;;;5050587;28;20352;-81
2023/10/11 13:05:43;;;;;;;10.07;3.92;;;21.30;67.70;;;;;;5051948;28;20017;-80
2023/10/11 13:08:11;;;;;;;9.77;4.05;;;21.30;68.90;;;;;;5052525;28;20382;-80
2023/10/11 13:10:48;;;;;;;14.88;4.15;;;21.30;71.00;;;;;;5054326;28;20031;-88
2023/10/11 13:13:14;;;;;;;11.57;4.47;;;21.20;70.70;;;;;;5055541;28;20104;-88
2023/10/11 13:15:59;;;;;;;9.32;4.50;;;21.20;72.40;;;;;;5055149;28;20028;-88
2023/10/11 13:18:32;;;;;;;40.70;38.03;;;21.10;72.80;;;;;;5048825;28;20037;-80
2023/10/11 13:21:01;;;;;;;14.98;5.40;;;21.10;73.10;;;;;;5043984;28;20421;-88
2023/10/11 13:23:30;;;;;;;11.80;4.82;;;21.00;73.10;;;;;;5054191;28;20462;-80
2023/10/11 13:26:00;;;;;;;9.25;4.70;;;21.00;74.90;;;;;;5055836;28;20028;-81
2023/10/11 13:28:29;;;;;;;8.65;3.95;;;20.90;75.60;;;;;;5053394;28;20032;-80
2023/10/11 13:30:55;;;;;;;11.23;4.35;;;20.90;77.00;;;;;;5056149;28;20052;-80
2023/10/11 13:33:21;;;;;;;8.80;4.45;;;20.80;76.50;;;;;;5058145;28;20045;-80
2023/10/11 13:35:50;;;;;;;9.77;4.30;;;20.80;74.60;;;;;;5053947;28;20386;-80
2023/10/11 13:38:19;;;;;;;11.40;4.78;;;20.80;75.20;;;;;;5054449;28;20086;-88
2023/10/11 13:40:46;;;;;;;9.90;4.22;;;20.80;76.30;;;;;;5054067;28;20467;-81
2023/10/11 13:43:12;;;;;;;11.27;4.18;;;20.80;75.70;;;;;;5054357;28;20111;-80
2023/10/11 13:45:40;;;;;;;9.23;4.38;;;20.80;75.90;;;;;;5055192;28;20096;-80
2023/10/11 13:48:12;;;;;;;11.27;4.53;;;20.70;73.70;;;;;;5054139;28;20045;-88